createdAt,value
2023-08-08T00:01:44.164Z,1.30
2023-08-08T00:11:51.259Z,1.40
2023-08-08T00:21:56.677Z,1.90
2023-08-08T00:32:05.040Z,1.30
2023-08-08T00:42:11.747Z,1.30
2023-08-08T00:52:19.185Z,2.20
2023-08-08T01:02:26.419Z,1.50
2023-08-08T01:12:34.060Z,2.20
2023-08-08T01:22:48.064Z,1.60
2023-08-08T01:32:55.330Z,1.60
2023-08-08T01:43:02.924Z,1.50
2023-08-08T01:53:10.775Z,2.10
2023-08-08T02:03:17.753Z,1.80
2023-08-08T02:13:24.924Z,1.50
2023-08-08T02:23:31.782Z,1.90
2023-08-08T02:33:38.929Z,1.70
2023-08-08T02:43:46.481Z,1.40
2023-08-08T02:53:51.968Z,1.40
2023-08-08T03:03:58.998Z,1.30
2023-08-08T03:14:06.343Z,1.70
2023-08-08T03:24:13.470Z,1.60
2023-08-08T03:34:20.388Z,2.00
2023-08-08T03:44:27.854Z,3.00
2023-08-08T03:54:35.360Z,1.70
2023-08-08T04:04:41.823Z,2.50
2023-08-08T04:14:49.019Z,2.90
2023-08-08T04:24:56.320Z,2.10
2023-08-08T04:35:03.458Z,2.30
2023-08-08T04:45:11.236Z,2.30
2023-08-08T04:55:18.152Z,2.50
2023-08-08T05:05:25.487Z,1.90
2023-08-08T05:15:30.283Z,2.00
2023-08-08T05:25:37.655Z,2.80
2023-08-08T05:35:43.223Z,3.10
2023-08-08T05:45:50.194Z,2.70
2023-08-08T05:55:58.257Z,1.90
2023-08-08T06:06:06.043Z,2.50
2023-08-08T06:16:13.387Z,2.20
2023-08-08T06:26:22.514Z,1.90
2023-08-08T06:36:30.337Z,1.70
2023-08-08T06:46:37.666Z,1.70
2023-08-08T06:56:43.702Z,1.50
2023-08-08T07:06:51.011Z,1.60
2023-08-08T07:27:01.938Z,2.10
2023-08-08T07:37:09.337Z,1.60
2023-08-08T07:47:16.599Z,1.60
2023-08-08T07:57:23.781Z,1.70
2023-08-08T08:07:30.990Z,1.70
2023-08-08T08:17:38.352Z,1.70
2023-08-08T08:27:45.923Z,1.60
2023-08-08T08:37:52.997Z,2.00
2023-08-08T08:48:01.480Z,2.30
2023-08-08T08:58:06.213Z,1.80
2023-08-08T09:08:13.091Z,1.70
2023-08-08T09:18:19.700Z,1.20
2023-08-08T09:28:25.856Z,1.40
2023-08-08T09:38:32.082Z,1.30
2023-08-08T09:48:37.164Z,1.30
2023-08-08T09:58:46.194Z,1.40
2023-08-08T10:08:54.215Z,1.50
2023-08-08T10:19:00.539Z,1.30
2023-08-08T10:29:05.565Z,0.90
2023-08-08T10:49:21.497Z,0.80
2023-08-08T10:59:29.362Z,1.00
2023-08-08T11:09:34.988Z,1.00
2023-08-08T11:19:42.428Z,1.00
2023-08-08T11:29:53.988Z,0.80
2023-08-08T11:40:01.980Z,1.00
2023-08-08T11:50:11.991Z,0.60
2023-08-08T12:00:17.188Z,0.90
2023-08-08T12:10:21.727Z,0.90
2023-08-08T12:20:30.824Z,0.90
2023-08-08T12:30:37.718Z,0.90
2023-08-08T12:40:45.598Z,1.30
2023-08-08T12:50:52.550Z,1.20
2023-08-08T13:00:59.524Z,1.10
2023-08-08T13:11:07.185Z,1.10
2023-08-08T13:21:14.824Z,0.80
2023-08-08T13:31:21.788Z,1.00
2023-08-08T13:41:28.709Z,1.10
2023-08-08T13:51:35.709Z,1.40
2023-08-08T14:01:44.725Z,1.20
2023-08-08T14:11:52.464Z,1.30
2023-08-08T14:22:01.096Z,1.10
2023-08-08T14:32:08.443Z,1.20
2023-08-08T14:42:14.775Z,1.50
2023-08-08T14:52:20.653Z,1.00
2023-08-08T15:02:28.218Z,1.20
2023-08-08T15:12:34.793Z,1.20
2023-08-08T15:22:41.956Z,1.40
2023-08-08T15:32:49.499Z,1.20
2023-08-08T15:42:57.016Z,1.30
2023-08-08T15:53:03.059Z,1.70
2023-08-08T16:03:08.218Z,1.30
2023-08-08T16:13:14.360Z,1.70
2023-08-08T16:23:20.503Z,1.70
2023-08-08T16:33:27.582Z,2.10
2023-08-08T16:43:39.953Z,2.10
2023-08-08T16:53:46.947Z,1.30
2023-08-08T17:03:53.353Z,2.10
2023-08-08T17:14:01.322Z,1.80
2023-08-08T17:24:06.448Z,1.60
2023-08-08T17:34:14.775Z,1.80
2023-08-08T17:44:22.182Z,2.00
2023-08-08T17:54:29.727Z,1.40
2023-08-08T18:04:35.386Z,1.80
2023-08-08T18:14:42.256Z,2.60
2023-08-08T18:24:49.528Z,2.30
2023-08-08T18:34:56.825Z,2.70
2023-08-08T18:45:05.356Z,2.40
2023-08-08T18:55:10.346Z,2.00
2023-08-08T19:05:17.655Z,2.50
2023-08-08T19:15:25.952Z,3.40
2023-08-08T19:25:31.740Z,1.80
2023-08-08T19:35:37.584Z,1.60
2023-08-08T19:45:44.650Z,1.40
2023-08-08T19:55:51.481Z,1.50
2023-08-08T20:05:57.299Z,1.50
2023-08-08T20:16:03.852Z,2.30
2023-08-08T20:26:11.321Z,2.50
2023-08-08T20:36:19.364Z,3.00
2023-08-08T20:46:27.409Z,2.90
2023-08-08T20:56:35.185Z,3.00
2023-08-08T21:06:43.554Z,2.40
2023-08-08T21:16:51.160Z,2.40
2023-08-08T21:26:58.742Z,2.40
2023-08-08T21:37:05.463Z,2.80
2023-08-08T21:47:11.142Z,3.10
2023-08-08T21:57:16.995Z,3.50
2023-08-08T22:07:24.021Z,3.70
2023-08-08T22:17:31.343Z,3.20
2023-08-08T22:27:36.851Z,3.80
2023-08-08T22:37:42.548Z,3.70
2023-08-08T22:47:48.553Z,3.00
2023-08-08T22:57:56.028Z,3.50
2023-08-08T23:08:06.121Z,2.70
2023-08-08T23:18:13.162Z,3.60
2023-08-08T23:28:20.124Z,4.10
2023-08-08T23:38:25.702Z,3.30
2023-08-08T23:48:31.788Z,4.10
2023-08-08T23:58:37.986Z,4.60
